Weather History for KFSE - October, 2013

Change the Weather History Date:

Friday, October 25, 2013

  Actual Average Record
Temperature  
Mean Temperature 39 °F -  
Max Temperature 55 °F 51 °F 79 °F (1989)
Min Temperature 23 °F 31 °F 16 °F (1979)
Degree Days  
Heating Degree Days 26    
Moisture  
Dew Point 28 °F    
Average Humidity 74    
Maximum Humidity 100    
Minimum Humidity 41    
Precipitation  
Precipitation 0.00 in - - ()
Sea Level Pressure  
Sea Level Pressure 29.93 in    
Wind  
Wind Speed 12 mph (SW)    
Max Wind Speed 29 mph    
Max Gust Speed 38 mph    
Visibility 10 miles    
Events      
Averages and records for this station are not official NWS values.
T = Trace of Precipitation, MM = Missing Value Source: NWS Daily Summary

Daily Weather History Graph

Daily Weather History Graph

Search for Another Location

Airport or City:

Trip Planner

Search our weather history database for the weather conditions in past years. The results will help you decide how hot, cold, wet, or windy it might be!

Date:

Astronomy

Oct. 25, 2013 Rise Set
Actual Time 7:56 AM CDT 6:16 PM CDT
Civil Twilight 7:25 AM CDT 6:48 PM CDT
Nautical Twilight 6:49 AM CDT 7:24 PM CDT
Astronomical Twilight 6:13 AM CDT 7:59 PM CDT
Moon 11:31 PM CDT (10/25) 1:44 PM CDT (10/25)
Length of Visible Light 11h 22m
Length of Day
10h 19m
Waning Gibbous, 62% of the Moon is Illuminated
Oct 25
Waning Gibbous
Oct 26
Last Quarter
Nov 3
New
Nov 9
First Quarter
Nov 17
Full

Hourly Weather History & Observations

Time (CDT) Temp. Windchill Dew Point Humidity Pressure Visibility Wind Dir Wind Speed Gust Speed Precip Events Conditions
12:15 AM 24.8 °F 19.1 °F 23.0 °F 93% 30.24 in 10.0 mi SSW 4.6 mph - N/A   Clear
12:35 AM 24.8 °F - 23.0 °F 93% 30.25 in 10.0 mi Calm Calm - N/A   Clear
12:55 AM 24.8 °F 16.9 °F 23.0 °F 93% 30.24 in 10.0 mi South 6.9 mph - N/A   Clear
1:15 AM 24.8 °F 17.9 °F 23.0 °F 93% 30.23 in 10.0 mi SSE 5.8 mph - N/A   Clear
1:35 AM 24.8 °F 16.9 °F 23.0 °F 93% 30.22 in 10.0 mi South 6.9 mph - N/A   Clear
1:55 AM 24.8 °F 16.9 °F 23.0 °F 93% 30.21 in 10.0 mi South 6.9 mph - N/A   Clear
2:15 AM 23.0 °F 15.8 °F 21.2 °F 93% 30.21 in 10.0 mi South 5.8 mph - N/A   Clear
2:35 AM 23.0 °F 15.8 °F 21.2 °F 93% 30.21 in 10.0 mi South 5.8 mph - N/A   Clear
2:55 AM 23.0 °F 15.8 °F 21.2 °F 93% 30.20 in 10.0 mi South 5.8 mph - N/A   Clear
3:15 AM 23.0 °F 15.8 °F 21.2 °F 93% 30.20 in 10.0 mi South 5.8 mph - N/A   Clear
3:35 AM 23.0 °F 14.7 °F 21.2 °F 93% 30.18 in 10.0 mi South 6.9 mph - N/A   Clear
3:55 AM 24.8 °F 16.9 °F 23.0 °F 93% 30.17 in 10.0 mi South 6.9 mph - N/A   Clear
4:15 AM 23.0 °F 14.7 °F 23.0 °F 100% 30.17 in 10.0 mi South 6.9 mph - N/A   Clear
4:35 AM 23.0 °F 13.9 °F 23.0 °F 100% 30.16 in 10.0 mi South 8.1 mph - N/A   Clear
4:55 AM 24.8 °F 16.1 °F 23.0 °F 93% 30.15 in 10.0 mi South 8.1 mph - N/A   Clear
5:15 AM 24.8 °F 16.9 °F 23.0 °F 93% 30.16 in 10.0 mi South 6.9 mph - N/A   Clear
5:35 AM 24.8 °F 15.3 °F 24.8 °F 100% 30.13 in 10.0 mi South 9.2 mph - N/A   Clear
5:55 AM 24.8 °F 14.6 °F 24.8 °F 100% 30.12 in 10.0 mi South 10.4 mph - N/A   Clear
6:15 AM 24.8 °F 15.3 °F 24.8 °F 100% 30.12 in 10.0 mi South 9.2 mph - N/A   Clear
6:35 AM 24.8 °F 14.0 °F 24.8 °F 100% 30.11 in 10.0 mi South 11.5 mph - N/A   Clear
6:55 AM 26.6 °F 16.2 °F 24.8 °F 93% 30.10 in 10.0 mi South 11.5 mph - N/A   Clear
7:15 AM 26.6 °F 14.7 °F 24.8 °F 93% 30.09 in 10.0 mi South 15.0 mph - N/A   Clear
7:35 AM 26.6 °F 14.7 °F 24.8 °F 93% 30.08 in 10.0 mi South 15.0 mph - N/A   Clear
7:55 AM 26.6 °F 14.7 °F 24.8 °F 93% 30.06 in 10.0 mi South 15.0 mph 19.6 mph N/A   Clear
8:15 AM 26.6 °F 14.3 °F 24.8 °F 93% 30.04 in 10.0 mi South 16.1 mph - N/A   Clear
8:35 AM 28.4 °F 17.0 °F 24.8 °F 86% 30.04 in 10.0 mi South 15.0 mph - N/A   Clear
8:55 AM 28.4 °F 16.6 °F 24.8 °F 86% 30.01 in 10.0 mi South 16.1 mph - N/A   Clear
9:15 AM 30.2 °F 18.5 °F 26.6 °F 86% 29.98 in 10.0 mi South 17.3 mph - N/A   Clear
9:35 AM 30.2 °F 17.4 °F 26.6 °F 86% 29.97 in 10.0 mi South 20.7 mph - N/A   Scattered Clouds
9:55 AM 32.0 °F 19.8 °F 26.6 °F 80% 29.96 in 10.0 mi SSW 20.7 mph 26.5 mph N/A   Clear
10:15 AM 33.8 °F 22.2 °F 28.4 °F 81% 29.93 in 10.0 mi South 20.7 mph - N/A   Clear
10:35 AM 35.6 °F 23.4 °F 28.4 °F 75% 29.90 in 10.0 mi South 25.3 mph 31.1 mph N/A   Clear
10:55 AM 35.6 °F 23.7 °F 28.4 °F 75% 29.88 in 10.0 mi SSW 24.2 mph 32.2 mph N/A   Clear
11:15 AM 37.4 °F 25.6 °F 28.4 °F 70% 29.86 in 10.0 mi South 26.5 mph 32.2 mph N/A   Clear
11:35 AM 37.4 °F 26.6 °F 28.4 °F 70% 29.84 in 10.0 mi SSW 21.9 mph 31.1 mph N/A   Clear
11:55 AM 42.8 °F 33.3 °F 28.4 °F 57% 29.82 in 10.0 mi SSW 24.2 mph 33.4 mph N/A   Clear
12:15 PM 44.6 °F 35.5 °F 30.2 °F 57% 29.81 in 10.0 mi SSW 25.3 mph 36.8 mph N/A   Scattered Clouds
12:35 PM 44.6 °F 34.9 °F 32.0 °F 61% 29.78 in 10.0 mi SSW 28.8 mph 35.7 mph N/A   Scattered Clouds
12:56 PM 48.2 °F - 33.8 °F 58% 29.80 in 10.0 mi SW 28.8 mph 38.0 mph N/A   Clear
1:15 PM 48.2 °F - 33.8 °F 58% 29.79 in 10.0 mi SW 25.3 mph 34.5 mph N/A   Clear
1:35 PM 46.4 °F 38.3 °F 33.8 °F 62% 29.77 in 10.0 mi SW 23.0 mph 35.7 mph N/A   Clear
1:56 PM 48.2 °F - 35.6 °F 62% 29.76 in 10.0 mi WSW 20.7 mph 27.6 mph N/A   Clear
2:15 PM 50.0 °F - 35.6 °F 58% 29.75 in 10.0 mi WSW 21.9 mph 31.1 mph N/A   Clear
2:35 PM 51.8 °F - 35.6 °F 54% 29.74 in 10.0 mi WSW 24.2 mph 33.4 mph N/A   Clear
2:56 PM 51.8 °F - 37.4 °F 58% 29.73 in 10.0 mi WSW 23.0 mph 31.1 mph N/A   Clear
3:15 PM 53.6 °F - 37.4 °F 54% 29.71 in 10.0 mi WSW 19.6 mph 28.8 mph N/A   Clear
3:35 PM 53.6 °F - 37.4 °F 54% 29.71 in 10.0 mi WSW 18.4 mph 28.8 mph N/A   Clear
3:56 PM 55.4 °F - 35.6 °F 47% 29.70 in 10.0 mi WSW 19.6 mph 27.6 mph N/A   Clear
4:15 PM 55.4 °F - 37.4 °F 51% 29.71 in 10.0 mi West 19.6 mph 25.3 mph N/A   Clear
4:35 PM 55.4 °F - 33.8 °F 44% 29.71 in 10.0 mi West 20.7 mph 32.2 mph N/A   Clear
4:56 PM 53.6 °F - 32.0 °F 44% 29.71 in 10.0 mi West 27.6 mph 38.0 mph N/A   Clear
5:15 PM 53.6 °F - 32.0 °F 44% 29.72 in 10.0 mi WNW 20.7 mph 32.2 mph N/A   Scattered Clouds
5:35 PM 53.6 °F - 30.2 °F 41% 29.73 in 10.0 mi WNW 13.8 mph 27.6 mph N/A   Scattered Clouds
5:55 PM 51.8 °F - 30.2 °F 44% 29.73 in 10.0 mi WNW 13.8 mph 19.6 mph N/A   Mostly Cloudy
6:15 PM 51.8 °F - 32.0 °F 47% 29.74 in 10.0 mi WNW 16.1 mph 24.2 mph N/A   Mostly Cloudy
6:36 PM 50.0 °F - 32.0 °F 50% 29.74 in 10.0 mi WNW 13.8 mph 23.0 mph N/A   Clear
6:55 PM 48.2 °F - 32.0 °F 54% 29.75 in 10.0 mi NW 12.7 mph 20.7 mph N/A   Scattered Clouds
7:15 PM 48.2 °F - 32.0 °F 54% 29.75 in 10.0 mi WNW 15.0 mph 21.9 mph N/A   Mostly Cloudy
7:34 PM 48.2 °F - 30.2 °F 50% 29.76 in 10.0 mi WNW 18.4 mph 23.0 mph N/A   Mostly Cloudy
7:55 PM 48.2 °F - 30.2 °F 50% 29.77 in 10.0 mi NW 19.6 mph 24.2 mph N/A   Overcast
8:15 PM 46.4 °F 39.2 °F 30.2 °F 53% 29.78 in 10.0 mi WNW 18.4 mph 23.0 mph N/A   Mostly Cloudy
8:35 PM 44.6 °F 37.2 °F 28.4 °F 53% 29.78 in 10.0 mi NW 17.3 mph 25.3 mph N/A   Scattered Clouds
8:55 PM 44.6 °F 35.7 °F 32.0 °F 61% 29.81 in 10.0 mi NNW 24.2 mph 31.1 mph N/A   Scattered Clouds
9:15 PM 42.8 °F 33.8 °F 30.2 °F 61% 29.82 in 10.0 mi NW 21.9 mph 31.1 mph N/A   Scattered Clouds
9:35 PM 39.2 °F 28.7 °F 28.4 °F 65% 29.84 in 10.0 mi NW 23.0 mph 33.4 mph N/A   Clear
9:55 PM 37.4 °F 28.2 °F 30.2 °F 75% 29.85 in 10.0 mi NW 16.1 mph 23.0 mph N/A   Scattered Clouds
10:15 PM 35.6 °F 24.8 °F 30.2 °F 81% 29.86 in 10.0 mi NW 19.6 mph 29.9 mph N/A   Clear
10:35 PM 35.6 °F 24.8 °F 28.4 °F 75% 29.87 in 10.0 mi NW 19.6 mph 25.3 mph N/A   Clear
10:55 PM 33.8 °F 23.9 °F 28.4 °F 81% 29.87 in 10.0 mi NNW 15.0 mph 20.7 mph N/A   Clear
11:15 PM 33.8 °F 23.9 °F 28.4 °F 81% 29.88 in 10.0 mi NNW 15.0 mph - N/A   Mostly Cloudy
11:35 PM 35.6 °F 27.1 °F 28.4 °F 75% 29.89 in 10.0 mi NW 12.7 mph 16.1 mph N/A   Overcast
11:55 PM 35.6 °F 27.5 °F 26.6 °F 70% 29.89 in 10.0 mi NW 11.5 mph - N/A   Overcast